sensor_id;sensor_type;location;lat;lon;timestamp;pressure;altitude;pressure_sealevel;temperature;humidity
55149;BME280;49539;48.160;11.530;2022-08-18T00:00:31;95481.00;;;19.63;100.00
55149;BME280;49539;48.160;11.530;2022-08-18T00:03:07;95482.53;;;19.64;100.00
55149;BME280;49539;48.160;11.530;2022-08-18T00:05:36;95491.56;;;19.65;100.00
55149;BME280;49539;48.160;11.530;2022-08-18T00:08:01;95488.06;;;19.70;100.00
55149;BME280;49539;48.160;11.530;2022-08-18T00:10:27;95483.22;;;19.59;100.00
55149;BME280;49539;48.160;11.530;2022-08-18T00:12:52;95481.13;;;19.54;100.00
55149;BME280;49539;48.160;11.530;2022-08-18T00:15:19;95483.78;;;19.63;100.00
55149;BME280;49539;48.160;11.530;2022-08-18T00:17:45;95483.00;;;19.63;100.00
55149;BME280;49539;48.160;11.530;2022-08-18T00:20:14;95486.56;;;19.69;100.00
55149;BME280;49539;48.160;11.530;2022-08-18T00:22:40;95486.78;;;19.65;100.00
55149;BME280;49539;48.160;11.530;2022-08-18T00:25:08;95473.47;;;19.64;100.00
55149;BME280;49539;48.160;11.530;2022-08-18T00:27:37;95473.50;;;19.69;100.00
55149;BME280;49539;48.160;11.530;2022-08-18T00:30:08;95475.63;;;19.54;100.00
55149;BME280;49539;48.160;11.530;2022-08-18T00:32:36;95478.56;;;19.45;100.00
55149;BME280;49539;48.160;11.530;2022-08-18T00:35:12;95494.69;;;19.52;100.00
55149;BME280;49539;48.160;11.530;2022-08-18T00:37:41;95502.66;;;19.44;100.00
55149;BME280;49539;48.160;11.530;2022-08-18T00:40:10;95493.66;;;19.49;100.00
55149;BME280;49539;48.160;11.530;2022-08-18T00:42:46;95499.41;;;19.46;100.00
55149;BME280;49539;48.160;11.530;2022-08-18T00:45:20;95498.44;;;19.49;100.00
55149;BME280;49539;48.160;11.530;2022-08-18T00:47:45;95484.63;;;19.49;100.00
55149;BME280;49539;48.160;11.530;2022-08-18T00:50:19;95474.53;;;19.46;100.00
55149;BME280;49539;48.160;11.530;2022-08-18T00:52:51;95470.34;;;19.50;100.00
55149;BME280;49539;48.160;11.530;2022-08-18T00:55:19;95470.00;;;19.43;100.00
55149;BME280;49539;48.160;11.530;2022-08-18T00:57:47;95461.44;;;19.41;100.00
55149;BME280;49539;48.160;11.530;2022-08-18T01:00:14;95461.22;;;19.44;100.00
55149;BME280;49539;48.160;11.530;2022-08-18T01:02:56;95478.34;;;19.48;100.00
55149;BME280;49539;48.160;11.530;2022-08-18T01:05:28;95486.91;;;19.50;100.00
55149;BME280;49539;48.160;11.530;2022-08-18T01:07:54;95497.88;;;19.45;100.00
55149;BME280;49539;48.160;11.530;2022-08-18T01:10:21;95506.59;;;19.38;100.00
55149;BME280;49539;48.160;11.530;2022-08-18T01:12:50;95514.53;;;19.50;100.00
55149;BME280;49539;48.160;11.530;2022-08-18T01:15:17;95508.63;;;19.37;100.00
55149;BME280;49539;48.160;11.530;2022-08-18T01:17:44;95500.38;;;19.17;100.00
55149;BME280;49539;48.160;11.530;2022-08-18T01:23:37;95514.03;;;19.00;100.00
55149;BME280;49539;48.160;11.530;2022-08-18T01:26:03;95521.75;;;18.96;100.00
55149;BME280;49539;48.160;11.530;2022-08-18T01:28:32;95517.91;;;18.88;100.00
55149;BME280;49539;48.160;11.530;2022-08-18T01:30:58;95519.09;;;18.81;100.00
55149;BME280;49539;48.160;11.530;2022-08-18T01:33:27;95506.19;;;18.72;100.00
55149;BME280;49539;48.160;11.530;2022-08-18T01:35:57;95507.50;;;18.77;100.00
55149;BME280;49539;48.160;11.530;2022-08-18T01:38:24;95512.19;;;18.71;100.00
55149;BME280;49539;48.160;11.530;2022-08-18T01:40:50;95510.72;;;18.75;100.00
55149;BME280;49539;48.160;11.530;2022-08-18T01:43:16;95516.00;;;18.73;100.00
55149;BME280;49539;48.160;11.530;2022-08-18T01:45:42;95501.09;;;18.86;100.00
55149;BME280;49539;48.160;11.530;2022-08-18T01:48:07;95499.69;;;18.75;100.00
55149;BME280;49539;48.160;11.530;2022-08-18T01:50:34;95492.66;;;18.74;100.00
55149;BME280;49539;48.160;11.530;2022-08-18T01:53:01;95488.59;;;18.70;100.00
55149;BME280;49539;48.160;11.530;2022-08-18T01:55:32;95480.13;;;18.73;100.00
55149;BME280;49539;48.160;11.530;2022-08-18T01:57:57;95477.97;;;18.83;100.00
55149;BME280;49539;48.160;11.530;2022-08-18T02:00:23;95474.03;;;18.90;100.00
55149;BME280;49539;48.160;11.530;2022-08-18T02:02:50;95478.16;;;18.79;100.00
55149;BME280;49539;48.160;11.530;2022-08-18T02:05:24;95481.13;;;18.76;100.00
55149;BME280;49539;48.160;11.530;2022-08-18T02:07:52;95479.63;;;18.75;100.00
55149;BME280;49539;48.160;11.530;2022-08-18T02:10:18;95472.53;;;18.68;100.00
55149;BME280;49539;48.160;11.530;2022-08-18T02:12:44;95479.69;;;18.60;100.00
55149;BME280;49539;48.160;11.530;2022-08-18T02:15:10;95478.38;;;18.55;100.00
55149;BME280;49539;48.160;11.530;2022-08-18T02:17:37;95468.22;;;18.47;100.00
55149;BME280;49539;48.160;11.530;2022-08-18T02:20:04;95470.25;;;18.46;100.00
55149;BME280;49539;48.160;11.530;2022-08-18T02:22:30;95482.72;;;18.42;100.00
55149;BME280;49539;48.160;11.530;2022-08-18T02:24:56;95483.81;;;18.50;100.00
55149;BME280;49539;48.160;11.530;2022-08-18T02:27:22;95487.81;;;18.49;100.00
55149;BME280;49539;48.160;11.530;2022-08-18T02:29:48;95474.03;;;18.49;100.00
55149;BME280;49539;48.160;11.530;2022-08-18T02:32:13;95472.84;;;18.55;100.00
55149;BME280;49539;48.160;11.530;2022-08-18T02:34:38;95464.31;;;18.53;100.00
55149;BME280;49539;48.160;11.530;2022-08-18T02:37:05;95464.47;;;18.44;100.00
55149;BME280;49539;48.160;11.530;2022-08-18T02:39:33;95473.09;;;18.52;100.00
55149;BME280;49539;48.160;11.530;2022-08-18T02:41:58;95476.59;;;18.52;100.00
55149;BME280;49539;48.160;11.530;2022-08-18T02:44:24;95467.78;;;18.48;100.00
55149;BME280;49539;48.160;11.530;2022-08-18T02:46:53;95461.34;;;18.37;100.00
55149;BME280;49539;48.160;11.530;2022-08-18T02:49:19;95457.63;;;18.40;100.00
55149;BME280;49539;48.160;11.530;2022-08-18T02:51:44;95456.81;;;18.33;100.00
55149;BME280;49539;48.160;11.530;2022-08-18T02:54:10;95447.47;;;18.31;100.00
55149;BME280;49539;48.160;11.530;2022-08-18T02:56:36;95450.19;;;18.25;100.00
55149;BME280;49539;48.160;11.530;2022-08-18T02:59:11;95449.03;;;18.32;100.00
55149;BME280;49539;48.160;11.530;2022-08-18T03:01:40;95446.81;;;18.36;100.00
55149;BME280;49539;48.160;11.530;2022-08-18T03:04:08;95455.09;;;18.36;100.00
55149;BME280;49539;48.160;11.530;2022-08-18T03:06:36;95459.28;;;18.31;100.00
55149;BME280;49539;48.160;11.530;2022-08-18T03:09:06;95450.53;;;18.33;100.00
55149;BME280;49539;48.160;11.530;2022-08-18T03:11:32;95451.78;;;18.32;100.00
55149;BME280;49539;48.160;11.530;2022-08-18T03:13:58;95465.28;;;18.30;100.00
55149;BME280;49539;48.160;11.530;2022-08-18T03:16:24;95459.69;;;18.24;100.00
55149;BME280;49539;48.160;11.530;2022-08-18T03:18:51;95455.22;;;18.27;100.00
55149;BME280;49539;48.160;11.530;2022-08-18T03:21:20;95455.53;;;18.14;100.00
55149;BME280;49539;48.160;11.530;2022-08-18T03:23:47;95451.63;;;18.21;100.00
55149;BME280;49539;48.160;11.530;2022-08-18T03:26:14;95442.59;;;18.20;100.00
55149;BME280;49539;48.160;11.530;2022-08-18T03:28:42;95438.13;;;18.23;100.00
55149;BME280;49539;48.160;11.530;2022-08-18T03:31:09;95439.34;;;18.22;100.00
55149;BME280;49539;48.160;11.530;2022-08-18T03:33:36;95426.97;;;18.12;100.00
55149;BME280;49539;48.160;11.530;2022-08-18T03:36:13;95422.91;;;18.07;100.00
55149;BME280;49539;48.160;11.530;2022-08-18T03:38:40;95420.97;;;18.13;100.00
55149;BME280;49539;48.160;11.530;2022-08-18T03:41:08;95413.25;;;18.17;100.00
55149;BME280;49539;48.160;11.530;2022-08-18T03:43:34;95422.34;;;18.03;100.00
55149;BME280;49539;48.160;11.530;2022-08-18T03:46:06;95423.28;;;18.00;100.00
55149;BME280;49539;48.160;11.530;2022-08-18T03:48:34;95425.09;;;18.03;100.00
55149;BME280;49539;48.160;11.530;2022-08-18T03:51:08;95426.66;;;18.09;100.00
55149;BME280;49539;48.160;11.530;2022-08-18T03:53:35;95423.16;;;18.09;100.00
55149;BME280;49539;48.160;11.530;2022-08-18T03:56:01;95424.66;;;18.10;100.00
55149;BME280;49539;48.160;11.530;2022-08-18T03:58:30;95428.13;;;18.05;100.00
55149;BME280;49539;48.160;11.530;2022-08-18T04:00:55;95424.81;;;18.01;100.00
55149;BME280;49539;48.160;11.530;2022-08-18T04:03:21;95423.84;;;18.04;100.00
55149;BME280;49539;48.160;11.530;2022-08-18T04:05:46;95433.41;;;17.88;100.00
55149;BME280;49539;48.160;11.530;2022-08-18T04:08:11;95446.13;;;17.85;100.00
55149;BME280;49539;48.160;11.530;2022-08-18T04:10:37;95443.28;;;17.95;100.00
55149;BME280;49539;48.160;11.530;2022-08-18T04:13:03;95434.31;;;18.00;100.00
55149;BME280;49539;48.160;11.530;2022-08-18T04:15:31;95433.81;;;18.01;100.00
55149;BME280;49539;48.160;11.530;2022-08-18T04:17:58;95433.56;;;17.99;100.00
55149;BME280;49539;48.160;11.530;2022-08-18T04:20:24;95434.03;;;17.98;100.00
55149;BME280;49539;48.160;11.530;2022-08-18T04:22:49;95413.53;;;17.99;100.00
55149;BME280;49539;48.160;11.530;2022-08-18T04:25:14;95403.25;;;17.99;100.00
55149;BME280;49539;48.160;11.530;2022-08-18T04:27:45;95396.28;;;17.83;100.00
55149;BME280;49539;48.160;11.530;2022-08-18T04:30:11;95398.53;;;17.85;100.00
55149;BME280;49539;48.160;11.530;2022-08-18T04:32:36;95403.78;;;17.83;100.00
55149;BME280;49539;48.160;11.530;2022-08-18T04:35:04;95401.22;;;17.79;100.00
55149;BME280;49539;48.160;11.530;2022-08-18T04:37:30;95407.09;;;17.87;100.00
55149;BME280;49539;48.160;11.530;2022-08-18T04:39:56;95411.44;;;17.94;100.00
55149;BME280;49539;48.160;11.530;2022-08-18T04:42:22;95414.53;;;18.01;100.00
55149;BME280;49539;48.160;11.530;2022-08-18T04:44:48;95418.75;;;17.97;100.00
55149;BME280;49539;48.160;11.530;2022-08-18T04:47:14;95416.53;;;18.01;100.00
55149;BME280;49539;48.160;11.530;2022-08-18T04:49:39;95409.38;;;18.09;100.00
55149;BME280;49539;48.160;11.530;2022-08-18T04:52:05;95406.00;;;17.99;100.00
55149;BME280;49539;48.160;11.530;2022-08-18T04:54:49;95403.66;;;17.92;100.00
55149;BME280;49539;48.160;11.530;2022-08-18T04:57:17;95426.94;;;17.91;100.00
55149;BME280;49539;48.160;11.530;2022-08-18T04:59:44;95424.66;;;17.90;100.00
55149;BME280;49539;48.160;11.530;2022-08-18T05:02:11;95437.84;;;18.00;100.00
55149;BME280;49539;48.160;11.530;2022-08-18T05:04:38;95444.06;;;18.16;100.00
55149;BME280;49539;48.160;11.530;2022-08-18T05:07:07;95435.84;;;18.21;100.00
55149;BME280;49539;48.160;11.530;2022-08-18T05:09:33;95431.72;;;18.31;100.00
55149;BME280;49539;48.160;11.530;2022-08-18T05:12:04;95428.28;;;18.37;100.00
55149;BME280;49539;48.160;11.530;2022-08-18T05:14:30;95424.00;;;18.35;100.00
55149;BME280;49539;48.160;11.530;2022-08-18T05:16:59;95424.31;;;18.43;100.00
55149;BME280;49539;48.160;11.530;2022-08-18T05:19:26;95414.88;;;18.50;100.00
55149;BME280;49539;48.160;11.530;2022-08-18T05:21:52;95422.41;;;18.49;100.00
55149;BME280;49539;48.160;11.530;2022-08-18T05:24:19;95424.59;;;18.66;100.00
55149;BME280;49539;48.160;11.530;2022-08-18T05:26:47;95424.84;;;18.68;100.00
55149;BME280;49539;48.160;11.530;2022-08-18T05:29:13;95431.28;;;18.79;100.00
55149;BME280;49539;48.160;11.530;2022-08-18T05:31:40;95452.91;;;18.87;100.00
55149;BME280;49539;48.160;11.530;2022-08-18T05:34:06;95462.72;;;18.88;100.00
55149;BME280;49539;48.160;11.530;2022-08-18T05:39:26;95463.38;;;19.03;100.00
55149;BME280;49539;48.160;11.530;2022-08-18T05:42:10;95465.91;;;19.06;100.00
55149;BME280;49539;48.160;11.530;2022-08-18T05:44:43;95458.94;;;19.11;100.00
55149;BME280;49539;48.160;11.530;2022-08-18T05:49:50;95460.22;;;19.16;100.00
55149;BME280;49539;48.160;11.530;2022-08-18T05:52:36;95457.78;;;19.23;100.00
55149;BME280;49539;48.160;11.530;2022-08-18T05:55:07;95453.31;;;19.26;100.00
55149;BME280;49539;48.160;11.530;2022-08-18T05:57:58;95467.84;;;19.00;100.00
55149;BME280;49539;48.160;11.530;2022-08-18T06:00:25;95477.28;;;19.14;100.00
55149;BME280;49539;48.160;11.530;2022-08-18T06:03:08;95459.31;;;19.24;100.00
55149;BME280;49539;48.160;11.530;2022-08-18T06:05:45;95464.22;;;19.41;100.00
55149;BME280;49539;48.160;11.530;2022-08-18T06:08:15;95453.25;;;19.52;100.00
55149;BME280;49539;48.160;11.530;2022-08-18T06:10:46;95458.22;;;19.42;100.00
55149;BME280;49539;48.160;11.530;2022-08-18T06:13:13;95467.06;;;19.52;100.00
55149;BME280;49539;48.160;11.530;2022-08-18T06:21:34;95470.09;;;19.54;100.00
55149;BME280;49539;48.160;11.530;2022-08-18T06:27:20;95467.44;;;19.65;100.00
55149;BME280;49539;48.160;11.530;2022-08-18T06:36:00;95458.72;;;19.72;100.00
55149;BME280;49539;48.160;11.530;2022-08-18T06:39:00;95450.22;;;19.76;100.00
55149;BME280;49539;48.160;11.530;2022-08-18T06:41:45;95445.97;;;19.80;100.00
55149;BME280;49539;48.160;11.530;2022-08-18T06:44:22;95445.69;;;19.78;100.00
55149;BME280;49539;48.160;11.530;2022-08-18T06:46:54;95434.41;;;19.82;100.00
55149;BME280;49539;48.160;11.530;2022-08-18T06:49:24;95439.19;;;19.87;100.00
55149;BME280;49539;48.160;11.530;2022-08-18T06:51:52;95436.97;;;19.91;100.00
55149;BME280;49539;48.160;11.530;2022-08-18T06:56:49;95442.88;;;20.10;100.00
55149;BME280;49539;48.160;11.530;2022-08-18T06:59:17;95430.22;;;19.98;100.00
55149;BME280;49539;48.160;11.530;2022-08-18T07:01:43;95432.81;;;19.70;100.00
55149;BME280;49539;48.160;11.530;2022-08-18T07:04:38;95431.31;;;19.69;100.00
55149;BME280;49539;48.160;11.530;2022-08-18T07:07:31;95418.56;;;19.82;100.00
55149;BME280;49539;48.160;11.530;2022-08-18T07:09:58;95426.03;;;19.71;100.00
55149;BME280;49539;48.160;11.530;2022-08-18T07:12:26;95427.50;;;19.66;100.00
55149;BME280;49539;48.160;11.530;2022-08-18T07:14:58;95432.50;;;19.62;100.00
55149;BME280;49539;48.160;11.530;2022-08-18T07:17:33;95426.69;;;19.60;100.00
55149;BME280;49539;48.160;11.530;2022-08-18T07:22:29;95434.19;;;19.86;100.00
55149;BME280;49539;48.160;11.530;2022-08-18T07:24:57;95433.66;;;19.81;100.00
55149;BME280;49539;48.160;11.530;2022-08-18T07:27:48;95433.72;;;19.93;100.00
55149;BME280;49539;48.160;11.530;2022-08-18T07:30:35;95420.88;;;19.90;100.00
55149;BME280;49539;48.160;11.530;2022-08-18T07:33:10;95413.44;;;20.07;100.00
55149;BME280;49539;48.160;11.530;2022-08-18T07:35:43;95413.19;;;20.05;100.00
55149;BME280;49539;48.160;11.530;2022-08-18T07:38:18;95412.22;;;20.08;100.00
55149;BME280;49539;48.160;11.530;2022-08-18T07:41:38;95413.25;;;20.16;100.00
55149;BME280;49539;48.160;11.530;2022-08-18T07:44:02;95418.03;;;20.21;100.00
55149;BME280;49539;48.160;11.530;2022-08-18T07:46:35;95422.88;;;20.38;100.00
55149;BME280;49539;48.160;11.530;2022-08-18T07:49:03;95419.09;;;20.35;100.00
55149;BME280;49539;48.160;11.530;2022-08-18T07:51:45;95404.81;;;20.48;100.00
55149;BME280;49539;48.160;11.530;2022-08-18T07:54:20;95401.31;;;20.53;100.00
55149;BME280;49539;48.160;11.530;2022-08-18T07:57:05;95410.94;;;20.63;100.00
55149;BME280;49539;48.160;11.530;2022-08-18T08:02:34;95406.97;;;20.87;100.00
55149;BME280;49539;48.160;11.530;2022-08-18T08:05:19;95412.28;;;21.07;100.00
55149;BME280;49539;48.160;11.530;2022-08-18T08:07:55;95412.78;;;21.17;100.00
55149;BME280;49539;48.160;11.530;2022-08-18T08:13:20;95406.75;;;21.24;100.00
55149;BME280;49539;48.160;11.530;2022-08-18T08:21:28;95418.63;;;21.41;100.00
55149;BME280;49539;48.160;11.530;2022-08-18T08:32:15;95425.91;;;21.33;100.00
55149;BME280;49539;48.160;11.530;2022-08-18T08:34:49;95405.53;;;21.36;100.00
55149;BME280;49539;48.160;11.530;2022-08-18T08:37:26;95391.91;;;21.38;100.00
55149;BME280;49539;48.160;11.530;2022-08-18T08:39:56;95383.84;;;21.57;100.00
55149;BME280;49539;48.160;11.530;2022-08-18T08:42:39;95376.78;;;21.62;100.00
55149;BME280;49539;48.160;11.530;2022-08-18T08:45:11;95372.00;;;21.57;100.00
55149;BME280;49539;48.160;11.530;2022-08-18T08:47:44;95376.03;;;21.61;100.00
55149;BME280;49539;48.160;11.530;2022-08-18T08:50:18;95379.06;;;21.46;100.00
55149;BME280;49539;48.160;11.530;2022-08-18T08:53:05;95378.28;;;21.63;100.00
55149;BME280;49539;48.160;11.530;2022-08-18T08:55:34;95373.75;;;21.60;100.00
55149;BME280;49539;48.160;11.530;2022-08-18T08:58:21;95374.25;;;21.69;100.00
55149;BME280;49539;48.160;11.530;2022-08-18T09:00:49;95374.69;;;22.01;100.00
55149;BME280;49539;48.160;11.530;2022-08-18T09:12:15;95353.09;;;21.66;100.00
55149;BME280;49539;48.160;11.530;2022-08-18T09:23:47;95352.69;;;22.20;100.00
55149;BME280;49539;48.160;11.530;2022-08-18T09:29:45;95376.88;;;22.25;100.00
55149;BME280;49539;48.160;11.530;2022-08-18T09:40:58;95335.38;;;22.56;100.00
55149;BME280;49539;48.160;11.530;2022-08-18T09:43:58;95341.03;;;22.74;100.00
55149;BME280;49539;48.160;11.530;2022-08-18T09:54:24;95332.97;;;22.71;100.00
55149;BME280;49539;48.160;11.530;2022-08-18T09:57:06;95343.41;;;23.00;100.00
55149;BME280;49539;48.160;11.530;2022-08-18T10:07:49;95348.88;;;23.42;100.00
55149;BME280;49539;48.160;11.530;2022-08-18T10:23:46;95351.72;;;23.91;100.00
55149;BME280;49539;48.160;11.530;2022-08-18T10:40:02;95344.44;;;24.07;100.00
55149;BME280;49539;48.160;11.530;2022-08-18T10:42:39;95336.88;;;24.07;100.00
55149;BME280;49539;48.160;11.530;2022-08-18T10:45:15;95332.88;;;24.21;100.00
55149;BME280;49539;48.160;11.530;2022-08-18T10:47:43;95332.94;;;24.40;100.00
55149;BME280;49539;48.160;11.530;2022-08-18T10:50:19;95333.34;;;24.63;100.00
55149;BME280;49539;48.160;11.530;2022-08-18T10:53:23;95328.88;;;24.41;100.00
55149;BME280;49539;48.160;11.530;2022-08-18T10:56:00;95315.91;;;24.63;100.00
55149;BME280;49539;48.160;11.530;2022-08-18T10:58:43;95305.88;;;25.05;100.00
55149;BME280;49539;48.160;11.530;2022-08-18T11:04:07;95315.44;;;25.42;100.00
55149;BME280;49539;48.160;11.530;2022-08-18T11:06:40;95304.06;;;25.40;100.00
55149;BME280;49539;48.160;11.530;2022-08-18T11:09:07;95297.88;;;25.60;100.00
55149;BME280;49539;48.160;11.530;2022-08-18T11:11:36;95296.59;;;25.88;100.00
55149;BME280;49539;48.160;11.530;2022-08-18T11:19:39;95274.78;;;25.46;100.00
55149;BME280;49539;48.160;11.530;2022-08-18T11:22:05;95284.13;;;25.62;100.00
55149;BME280;49539;48.160;11.530;2022-08-18T11:24:31;95289.41;;;25.66;100.00
55149;BME280;49539;48.160;11.530;2022-08-18T11:27:16;95268.91;;;25.37;100.00
55149;BME280;49539;48.160;11.530;2022-08-18T11:29:42;95252.41;;;25.65;100.00
55149;BME280;49539;48.160;11.530;2022-08-18T11:34:52;95254.94;;;25.63;100.00
55149;BME280;49539;48.160;11.530;2022-08-18T11:43:00;95263.56;;;25.65;100.00
55149;BME280;49539;48.160;11.530;2022-08-18T11:45:32;95260.19;;;26.20;100.00
55149;BME280;49539;48.160;11.530;2022-08-18T12:07:16;95164.28;;;26.31;100.00
55149;BME280;49539;48.160;11.530;2022-08-18T12:09:47;95168.19;;;26.69;100.00
55149;BME280;49539;48.160;11.530;2022-08-18T12:12:18;95159.66;;;26.96;100.00
55149;BME280;49539;48.160;11.530;2022-08-18T12:17:38;95157.03;;;26.98;100.00
55149;BME280;49539;48.160;11.530;2022-08-18T12:20:05;95169.47;;;27.10;100.00
55149;BME280;49539;48.160;11.530;2022-08-18T12:22:36;95180.22;;;27.06;100.00
55149;BME280;49539;48.160;11.530;2022-08-18T12:25:04;95190.84;;;26.87;100.00
55149;BME280;49539;48.160;11.530;2022-08-18T12:27:30;95183.84;;;26.93;100.00
55149;BME280;49539;48.160;11.530;2022-08-18T12:29:57;95176.34;;;27.38;100.00
55149;BME280;49539;48.160;11.530;2022-08-18T12:32:26;95161.53;;;27.58;100.00
55149;BME280;49539;48.160;11.530;2022-08-18T12:34:52;95143.50;;;27.67;100.00
55149;BME280;49539;48.160;11.530;2022-08-18T12:37:20;95144.47;;;27.77;100.00
55149;BME280;49539;48.160;11.530;2022-08-18T12:39:47;95171.22;;;27.86;100.00
55149;BME280;49539;48.160;11.530;2022-08-18T12:42:12;95172.47;;;27.41;100.00
55149;BME280;49539;48.160;11.530;2022-08-18T12:44:38;95171.72;;;27.40;100.00
55149;BME280;49539;48.160;11.530;2022-08-18T12:47:12;95170.66;;;27.23;100.00
55149;BME280;49539;48.160;11.530;2022-08-18T12:49:38;95178.81;;;27.13;100.00
55149;BME280;49539;48.160;11.530;2022-08-18T12:52:04;95190.72;;;26.92;100.00
55149;BME280;49539;48.160;11.530;2022-08-18T12:54:30;95197.13;;;27.01;100.00
55149;BME280;49539;48.160;11.530;2022-08-18T12:56:57;95193.69;;;27.36;100.00
55149;BME280;49539;48.160;11.530;2022-08-18T12:59:23;95190.22;;;27.23;100.00
55149;BME280;49539;48.160;11.530;2022-08-18T13:01:48;95184.28;;;27.26;100.00
55149;BME280;49539;48.160;11.530;2022-08-18T13:04:14;95168.78;;;27.54;100.00
55149;BME280;49539;48.160;11.530;2022-08-18T13:06:52;95176.03;;;27.49;100.00
55149;BME280;49539;48.160;11.530;2022-08-18T13:09:19;95174.50;;;27.77;100.00
55149;BME280;49539;48.160;11.530;2022-08-18T13:11:45;95173.72;;;27.32;100.00
55149;BME280;49539;48.160;11.530;2022-08-18T13:14:11;95162.06;;;27.49;100.00
55149;BME280;49539;48.160;11.530;2022-08-18T13:16:40;95151.28;;;27.53;100.00
55149;BME280;49539;48.160;11.530;2022-08-18T13:19:07;95146.53;;;27.40;100.00
55149;BME280;49539;48.160;11.530;2022-08-18T13:21:34;95147.91;;;27.18;100.00
55149;BME280;49539;48.160;11.530;2022-08-18T13:24:00;95139.31;;;27.16;100.00
55149;BME280;49539;48.160;11.530;2022-08-18T13:26:27;95129.72;;;27.04;100.00
55149;BME280;49539;48.160;11.530;2022-08-18T13:28:54;95132.91;;;27.37;100.00
55149;BME280;49539;48.160;11.530;2022-08-18T13:31:19;95140.16;;;27.32;100.00
55149;BME280;49539;48.160;11.530;2022-08-18T13:33:45;95132.22;;;27.15;100.00
55149;BME280;49539;48.160;11.530;2022-08-18T13:36:10;95124.59;;;27.16;100.00
55149;BME280;49539;48.160;11.530;2022-08-18T13:38:36;95135.84;;;27.03;100.00
55149;BME280;49539;48.160;11.530;2022-08-18T13:41:02;95138.56;;;26.66;100.00
55149;BME280;49539;48.160;11.530;2022-08-18T13:43:38;95142.84;;;26.67;100.00
55149;BME280;49539;48.160;11.530;2022-08-18T13:46:07;95140.88;;;26.76;100.00
55149;BME280;49539;48.160;11.530;2022-08-18T13:48:33;95143.75;;;26.62;100.00
55149;BME280;49539;48.160;11.530;2022-08-18T13:51:00;95140.41;;;26.64;100.00
55149;BME280;49539;48.160;11.530;2022-08-18T13:53:27;95139.41;;;26.19;100.00
55149;BME280;49539;48.160;11.530;2022-08-18T13:55:53;95143.16;;;26.01;100.00
55149;BME280;49539;48.160;11.530;2022-08-18T13:58:20;95139.53;;;25.80;100.00
55149;BME280;49539;48.160;11.530;2022-08-18T14:00:56;95132.75;;;25.75;100.00
55149;BME280;49539;48.160;11.530;2022-08-18T14:03:22;95135.03;;;25.90;100.00
55149;BME280;49539;48.160;11.530;2022-08-18T14:05:50;95116.59;;;26.29;100.00
55149;BME280;49539;48.160;11.530;2022-08-18T14:08:18;95114.28;;;26.40;100.00
55149;BME280;49539;48.160;11.530;2022-08-18T14:10:44;95101.91;;;26.49;100.00
55149;BME280;49539;48.160;11.530;2022-08-18T14:13:11;95086.31;;;26.54;100.00
55149;BME280;49539;48.160;11.530;2022-08-18T14:15:37;95089.84;;;26.33;100.00
55149;BME280;49539;48.160;11.530;2022-08-18T14:18:03;95078.56;;;26.39;100.00
55149;BME280;49539;48.160;11.530;2022-08-18T14:20:29;95082.94;;;26.47;100.00
55149;BME280;49539;48.160;11.530;2022-08-18T14:23:13;95074.75;;;26.50;100.00
55149;BME280;49539;48.160;11.530;2022-08-18T14:25:57;95065.00;;;26.43;100.00
55149;BME280;49539;48.160;11.530;2022-08-18T14:28:40;95066.53;;;26.72;100.00
55149;BME280;49539;48.160;11.530;2022-08-18T14:31:06;95064.34;;;26.50;100.00
55149;BME280;49539;48.160;11.530;2022-08-18T14:33:32;95061.81;;;26.39;100.00
55149;BME280;49539;48.160;11.530;2022-08-18T14:35:58;95063.41;;;26.76;100.00
55149;BME280;49539;48.160;11.530;2022-08-18T14:38:23;95055.38;;;26.72;100.00
55149;BME280;49539;48.160;11.530;2022-08-18T14:40:49;95055.75;;;26.48;100.00
55149;BME280;49539;48.160;11.530;2022-08-18T14:43:17;95052.53;;;26.44;100.00
55149;BME280;49539;48.160;11.530;2022-08-18T14:45:43;95057.47;;;26.30;100.00
55149;BME280;49539;48.160;11.530;2022-08-18T14:48:10;95058.16;;;26.72;100.00
55149;BME280;49539;48.160;11.530;2022-08-18T14:50:35;95062.00;;;26.41;100.00
55149;BME280;49539;48.160;11.530;2022-08-18T14:53:01;95056.28;;;26.67;100.00
55149;BME280;49539;48.160;11.530;2022-08-18T14:55:26;95056.16;;;26.81;100.00
55149;BME280;49539;48.160;11.530;2022-08-18T14:57:52;95050.06;;;26.90;100.00
55149;BME280;49539;48.160;11.530;2022-08-18T15:00:18;95052.94;;;27.05;100.00
55149;BME280;49539;48.160;11.530;2022-08-18T15:02:45;95049.03;;;27.01;100.00
55149;BME280;49539;48.160;11.530;2022-08-18T15:05:12;95043.28;;;26.78;100.00
55149;BME280;49539;48.160;11.530;2022-08-18T15:07:38;95033.97;;;26.75;100.00
55149;BME280;49539;48.160;11.530;2022-08-18T15:10:08;95034.50;;;26.73;100.00
55149;BME280;49539;48.160;11.530;2022-08-18T15:12:35;95042.03;;;26.58;100.00
55149;BME280;49539;48.160;11.530;2022-08-18T15:15:04;95044.81;;;26.50;100.00
55149;BME280;49539;48.160;11.530;2022-08-18T15:17:33;95036.97;;;26.48;100.00
55149;BME280;49539;48.160;11.530;2022-08-18T15:20:04;95044.41;;;26.46;100.00
55149;BME280;49539;48.160;11.530;2022-08-18T15:22:29;95041.44;;;26.31;100.00
55149;BME280;49539;48.160;11.530;2022-08-18T15:25:13;95047.47;;;26.14;100.00
55149;BME280;49539;48.160;11.530;2022-08-18T15:27:57;95055.41;;;25.89;100.00
55149;BME280;49539;48.160;11.530;2022-08-18T15:30:22;95053.16;;;25.87;100.00
55149;BME280;49539;48.160;11.530;2022-08-18T15:32:48;95060.38;;;25.83;100.00
55149;BME280;49539;48.160;11.530;2022-08-18T15:35:15;95062.69;;;25.92;100.00